sensor_id;sensor_type;location;lat;lon;timestamp;pressure;altitude;pressure_sealevel;temperature;humidity
49801;BME280;35698;50.232;30.540;2023-04-21T00:00:14;100036.45;;;12.92;72.43
49801;BME280;35698;50.232;30.540;2023-04-21T00:01:25;100040.13;;;13.02;72.38
49801;BME280;35698;50.232;30.540;2023-04-21T00:02:29;100026.80;;;12.91;72.49
49801;BME280;35698;50.232;30.540;2023-04-21T00:03:40;100032.00;;;12.92;72.96
49801;BME280;35698;50.232;30.540;2023-04-21T00:04:44;100034.77;;;12.78;72.89
49801;BME280;35698;50.232;30.540;2023-04-21T00:06:01;100036.56;;;12.90;73.06
49801;BME280;35698;50.232;30.540;2023-04-21T00:07:04;100037.31;;;12.79;73.28
49801;BME280;35698;50.232;30.540;2023-04-21T00:08:25;100031.38;;;12.76;72.98
49801;BME280;35698;50.232;30.540;2023-04-21T00:09:43;100027.66;;;12.91;73.24
49801;BME280;35698;50.232;30.540;2023-04-21T00:10:46;100030.95;;;12.82;73.22
49801;BME280;35698;50.232;30.540;2023-04-21T00:12:07;100029.03;;;12.84;73.30
49801;BME280;35698;50.232;30.540;2023-04-21T00:13:11;100033.28;;;12.87;73.56
49801;BME280;35698;50.232;30.540;2023-04-21T00:14:22;100035.77;;;13.01;73.07
49801;BME280;35698;50.232;30.540;2023-04-21T00:15:25;100032.00;;;12.92;72.88
49801;BME280;35698;50.232;30.540;2023-04-21T00:16:47;100024.16;;;12.91;72.89
49801;BME280;35698;50.232;30.540;2023-04-21T00:17:58;100027.50;;;13.05;73.08
49801;BME280;35698;50.232;30.540;2023-04-21T00:19:02;100024.89;;;12.93;72.73
49801;BME280;35698;50.232;30.540;2023-04-21T00:20:24;100023.94;;;12.94;72.58
49801;BME280;35698;50.232;30.540;2023-04-21T00:21:30;100023.94;;;12.94;72.44
49801;BME280;35698;50.232;30.540;2023-04-21T00:22:41;100025.58;;;13.07;72.68
49801;BME280;35698;50.232;30.540;2023-04-21T00:23:45;100022.24;;;12.93;72.55
49801;BME280;35698;50.232;30.540;2023-04-21T00:25:07;100022.77;;;12.98;72.82
49801;BME280;35698;50.232;30.540;2023-04-21T00:26:18;100027.80;;;13.13;72.89
49801;BME280;35698;50.232;30.540;2023-04-21T00:27:22;100019.02;;;13.00;72.59
49801;BME280;35698;50.232;30.540;2023-04-21T00:28:43;100026.76;;;13.03;72.60
49801;BME280;35698;50.232;30.540;2023-04-21T00:29:46;100024.73;;;13.07;72.53
49801;BME280;35698;50.232;30.540;2023-04-21T00:30:52;100022.94;;;13.07;72.31
49801;BME280;35698;50.232;30.540;2023-04-21T00:31:55;100030.45;;;13.13;71.82
49801;BME280;35698;50.232;30.540;2023-04-21T00:32:59;100028.66;;;13.14;71.94
49801;BME280;35698;50.232;30.540;2023-04-21T00:34:21;100022.39;;;13.28;71.71
49801;BME280;35698;50.232;30.540;2023-04-21T00:35:24;100028.25;;;13.20;71.71
49801;BME280;35698;50.232;30.540;2023-04-21T00:36:38;100022.91;;;13.33;71.72
49801;BME280;35698;50.232;30.540;2023-04-21T00:37:41;100022.20;;;13.18;71.56
49801;BME280;35698;50.232;30.540;2023-04-21T00:38:53;100017.72;;;13.31;71.74
49801;BME280;35698;50.232;30.540;2023-04-21T00:39:56;100021.14;;;13.21;71.53
49801;BME280;35698;50.232;30.540;2023-04-21T00:40:59;100017.53;;;13.22;71.32
49801;BME280;35698;50.232;30.540;2023-04-21T00:42:03;100019.44;;;13.20;71.29
49801;BME280;35698;50.232;30.540;2023-04-21T00:43:06;100025.59;;;13.20;71.29
49801;BME280;35698;50.232;30.540;2023-04-21T00:44:18;100023.87;;;13.32;71.25
49801;BME280;35698;50.232;30.540;2023-04-21T00:45:21;100015.72;;;13.22;71.22
49801;BME280;35698;50.232;30.540;2023-04-21T00:46:33;100022.91;;;13.33;71.43
49801;BME280;35698;50.232;30.540;2023-04-21T00:47:37;100025.27;;;13.25;71.12
49801;BME280;35698;50.232;30.540;2023-04-21T00:48:59;100024.20;;;13.27;70.79
49801;BME280;35698;50.232;30.540;2023-04-21T00:50:12;100022.47;;;13.39;71.00
49801;BME280;35698;50.232;30.540;2023-04-21T00:51:16;100025.16;;;13.26;70.92
49801;BME280;35698;50.232;30.540;2023-04-21T00:52:39;100024.09;;;13.29;71.27
49801;BME280;35698;50.232;30.540;2023-04-21T00:53:51;100026.38;;;13.46;70.95
49801;BME280;35698;50.232;30.540;2023-04-21T00:54:55;100022.17;;;13.31;70.49
49801;BME280;35698;50.232;30.540;2023-04-21T00:56:17;100019.30;;;13.34;70.53
49801;BME280;35698;50.232;30.540;2023-04-21T00:57:30;100014.29;;;13.42;70.30
49801;BME280;35698;50.232;30.540;2023-04-21T00:58:35;100015.58;;;13.36;70.35
49801;BME280;35698;50.232;30.540;2023-04-21T00:59:57;100014.00;;;13.34;70.17
49801;BME280;35698;50.232;30.540;2023-04-21T01:01:09;100015.77;;;13.46;70.16
49801;BME280;35698;50.232;30.540;2023-04-21T01:02:14;100012.08;;;13.36;70.03
49801;BME280;35698;50.232;30.540;2023-04-21T01:03:36;100013.77;;;13.37;70.01
49801;BME280;35698;50.232;30.540;2023-04-21T01:04:48;100016.72;;;13.45;69.73
49801;BME280;35698;50.232;30.540;2023-04-21T01:05:51;100007.11;;;13.31;69.80
49801;BME280;35698;50.232;30.540;2023-04-21T01:07:12;100014.22;;;13.31;69.56
49801;BME280;35698;50.232;30.540;2023-04-21T01:08:30;100016.20;;;13.40;70.02
49801;BME280;35698;50.232;30.540;2023-04-21T01:09:34;100017.94;;;13.28;69.95
49801;BME280;35698;50.232;30.540;2023-04-21T01:10:55;100018.27;;;13.24;69.99
49801;BME280;35698;50.232;30.540;2023-04-21T01:12:08;100023.13;;;13.30;69.95
49801;BME280;35698;50.232;30.540;2023-04-21T01:13:12;100023.05;;;13.19;70.15
49801;BME280;35698;50.232;30.540;2023-04-21T01:14:34;100021.36;;;13.18;70.33
49801;BME280;35698;50.232;30.540;2023-04-21T01:15:56;100016.05;;;13.18;70.08
49801;BME280;35698;50.232;30.540;2023-04-21T01:17:07;100019.85;;;13.26;70.33
49801;BME280;35698;50.232;30.540;2023-04-21T01:18:10;100020.06;;;13.10;70.32
49801;BME280;35698;50.232;30.540;2023-04-21T01:19:23;100017.42;;;13.23;70.70
49801;BME280;35698;50.232;30.540;2023-04-21T01:20:27;100014.65;;;13.12;70.46
49801;BME280;35698;50.232;30.540;2023-04-21T01:21:38;100013.59;;;13.27;70.44
49801;BME280;35698;50.232;30.540;2023-04-21T01:22:42;100016.23;;;13.14;70.14
49801;BME280;35698;50.232;30.540;2023-04-21T01:23:54;100011.56;;;13.31;69.91
49801;BME280;35698;50.232;30.540;2023-04-21T01:24:57;100012.44;;;13.19;69.86
49801;BME280;35698;50.232;30.540;2023-04-21T01:26:08;100018.56;;;13.32;70.06
49801;BME280;35698;50.232;30.540;2023-04-21T01:28:26;100012.30;;;13.33;70.16
49801;BME280;35698;50.232;30.540;2023-04-21T01:30:54;100005.85;;;13.24;70.42
49801;BME280;35698;50.232;30.540;2023-04-21T01:32:21;100006.48;;;13.28;69.96
49801;BME280;35698;50.232;30.540;2023-04-21T01:33:33;100007.73;;;13.35;69.79
49801;BME280;35698;50.232;30.540;2023-04-21T01:34:38;100012.00;;;13.25;70.01
49801;BME280;35698;50.232;30.540;2023-04-21T01:35:41;100006.70;;;13.25;69.98
49801;BME280;35698;50.232;30.540;2023-04-21T01:37:11;100005.11;;;13.22;69.95
49801;BME280;35698;50.232;30.540;2023-04-21T01:38:26;100007.95;;;13.32;70.38
49801;BME280;35698;50.232;30.540;2023-04-21T01:39:30;99999.70;;;13.24;70.37
49801;BME280;35698;50.232;30.540;2023-04-21T01:40:41;100003.56;;;13.43;69.82
49801;BME280;35698;50.232;30.540;2023-04-21T01:41:44;99998.81;;;13.36;69.42
49801;BME280;35698;50.232;30.540;2023-04-21T01:42:48;100006.33;;;13.42;69.24
49801;BME280;35698;50.232;30.540;2023-04-21T01:43:59;100006.91;;;13.58;69.26
49801;BME280;35698;50.232;30.540;2023-04-21T01:45:03;99998.15;;;13.45;69.22
49801;BME280;35698;50.232;30.540;2023-04-21T01:46:21;100006.80;;;13.60;69.35
49801;BME280;35698;50.232;30.540;2023-04-21T01:47:25;100000.87;;;13.56;69.01
49801;BME280;35698;50.232;30.540;2023-04-21T01:48:36;100003.86;;;13.75;68.36
49801;BME280;35698;50.232;30.540;2023-04-21T01:49:39;100004.42;;;13.68;67.96
49801;BME280;35698;50.232;30.540;2023-04-21T01:50:52;100006.29;;;13.78;67.80
49801;BME280;35698;50.232;30.540;2023-04-21T01:51:56;100003.92;;;13.63;67.91
49801;BME280;35698;50.232;30.540;2023-04-21T01:53:08;100003.24;;;13.72;67.94
49801;BME280;35698;50.232;30.540;2023-04-21T01:54:11;100003.52;;;13.56;67.75
49801;BME280;35698;50.232;30.540;2023-04-21T01:55:23;100011.55;;;13.67;67.96
49801;BME280;35698;50.232;30.540;2023-04-21T01:56:26;100001.60;;;13.58;67.76
49801;BME280;35698;50.232;30.540;2023-04-21T01:57:38;100003.80;;;13.64;68.01
49801;BME280;35698;50.232;30.540;2023-04-21T01:58:41;99996.01;;;13.50;68.24
49801;BME280;35698;50.232;30.540;2023-04-21T01:59:52;99993.41;;;13.61;68.84
49801;BME280;35698;50.232;30.540;2023-04-21T02:00:56;99995.05;;;13.51;68.61
49801;BME280;35698;50.232;30.540;2023-04-21T02:01:59;99995.78;;;13.53;68.63
49801;BME280;35698;50.232;30.540;2023-04-21T02:03:10;99991.49;;;13.63;68.33
49801;BME280;35698;50.232;30.540;2023-04-21T02:04:14;99994.31;;;13.49;68.41
49801;BME280;35698;50.232;30.540;2023-04-21T02:05:25;99986.41;;;13.60;68.42
49801;BME280;35698;50.232;30.540;2023-04-21T02:06:29;99989.73;;;13.51;68.57
49801;BME280;35698;50.232;30.540;2023-04-21T02:07:40;99988.11;;;13.61;68.35
49801;BME280;35698;50.232;30.540;2023-04-21T02:08:43;99984.88;;;13.45;68.25
49801;BME280;35698;50.232;30.540;2023-04-21T02:09:55;99994.48;;;13.59;68.25
49801;BME280;35698;50.232;30.540;2023-04-21T02:11:00;99986.02;;;13.54;68.24
49801;BME280;35698;50.232;30.540;2023-04-21T02:12:21;99981.89;;;13.50;68.51
49801;BME280;35698;50.232;30.540;2023-04-21T02:13:25;99988.55;;;13.55;68.58
49801;BME280;35698;50.232;30.540;2023-04-21T02:14:37;99989.46;;;13.67;68.08
49801;BME280;35698;50.232;30.540;2023-04-21T02:15:40;99987.59;;;13.56;67.96
49801;BME280;35698;50.232;30.540;2023-04-21T02:17:01;99980.48;;;13.57;68.17
49801;BME280;35698;50.232;30.540;2023-04-21T02:18:12;99978.22;;;13.63;67.84
49801;BME280;35698;50.232;30.540;2023-04-21T02:19:15;99979.97;;;13.52;67.87
49801;BME280;35698;50.232;30.540;2023-04-21T02:20:37;99980.82;;;13.52;67.84
49801;BME280;35698;50.232;30.540;2023-04-21T02:21:43;99981.78;;;13.51;67.90
49801;BME280;35698;50.232;30.540;2023-04-21T02:22:58;99973.88;;;13.62;68.00
49801;BME280;35698;50.232;30.540;2023-04-21T02:24:02;99978.16;;;13.52;68.07
49801;BME280;35698;50.232;30.540;2023-04-21T02:25:23;99972.75;;;13.54;68.21
49801;BME280;35698;50.232;30.540;2023-04-21T02:26:26;99976.02;;;13.57;68.24
49801;BME280;35698;50.232;30.540;2023-04-21T02:27:48;99979.64;;;13.56;68.15
49801;BME280;35698;50.232;30.540;2023-04-21T02:28:51;99977.43;;;13.50;67.84
49801;BME280;35698;50.232;30.540;2023-04-21T02:30:03;99977.38;;;13.63;67.82
49801;BME280;35698;50.232;30.540;2023-04-21T02:31:06;99980.70;;;13.54;67.44
49801;BME280;35698;50.232;30.540;2023-04-21T02:32:28;99977.20;;;13.53;67.45
49801;BME280;35698;50.232;30.540;2023-04-21T02:33:39;99973.53;;;13.67;67.59
49801;BME280;35698;50.232;30.540;2023-04-21T02:34:43;99973.48;;;13.56;67.49
49801;BME280;35698;50.232;30.540;2023-04-21T02:36:05;99978.45;;;13.60;67.51
49801;BME280;35698;50.232;30.540;2023-04-21T02:37:16;99968.50;;;13.75;67.74
49801;BME280;35698;50.232;30.540;2023-04-21T02:38:19;99966.64;;;13.64;67.39
49801;BME280;35698;50.232;30.540;2023-04-21T02:39:41;99977.27;;;13.64;67.50
49801;BME280;35698;50.232;30.540;2023-04-21T02:40:52;99972.69;;;13.66;67.56
49801;BME280;35698;50.232;30.540;2023-04-21T02:41:55;99975.28;;;13.55;67.56
49801;BME280;35698;50.232;30.540;2023-04-21T02:43:07;99978.00;;;13.66;67.51
49801;BME280;35698;50.232;30.540;2023-04-21T02:44:10;99972.63;;;13.55;67.58
49801;BME280;35698;50.232;30.540;2023-04-21T02:45:14;99976.98;;;13.56;67.45
49801;BME280;35698;50.232;30.540;2023-04-21T02:46:24;99970.54;;;13.71;67.15
49801;BME280;35698;50.232;30.540;2023-04-21T02:47:28;99966.88;;;13.61;67.12
49801;BME280;35698;50.232;30.540;2023-04-21T02:48:31;99968.91;;;13.58;66.79
49801;BME280;35698;50.232;30.540;2023-04-21T02:49:40;99971.67;;;13.56;66.46
49801;BME280;35698;50.232;30.540;2023-04-21T02:51:01;99971.28;;;13.50;66.67
49801;BME280;35698;50.232;30.540;2023-04-21T02:52:13;99969.64;;;13.60;66.96
49801;BME280;35698;50.232;30.540;2023-04-21T02:53:16;99969.19;;;13.42;66.70
49801;BME280;35698;50.232;30.540;2023-04-21T02:54:28;99962.86;;;13.56;66.83
49801;BME280;35698;50.232;30.540;2023-04-21T02:55:31;99966.64;;;13.40;66.65
49801;BME280;35698;50.232;30.540;2023-04-21T02:56:57;99965.73;;;13.29;66.84
49801;BME280;35698;50.232;30.540;2023-04-21T02:58:00;99961.38;;;13.28;67.00
49801;BME280;35698;50.232;30.540;2023-04-21T02:59:04;99960.24;;;13.19;67.13
49801;BME280;35698;50.232;30.540;2023-04-21T03:00:21;99961.05;;;13.32;67.30
49801;BME280;35698;50.232;30.540;2023-04-21T03:01:24;99952.80;;;13.24;67.12
49801;BME280;35698;50.232;30.540;2023-04-21T03:02:46;99955.23;;;13.27;67.07
49801;BME280;35698;50.232;30.540;2023-04-21T03:04:03;99955.78;;;13.20;67.70
49801;BME280;35698;50.232;30.540;2023-04-21T03:05:07;99955.68;;;13.08;67.43
49801;BME280;35698;50.232;30.540;2023-04-21T03:06:29;99961.61;;;13.12;67.58
49801;BME280;35698;50.232;30.540;2023-04-21T03:07:44;99956.75;;;13.06;67.54
49801;BME280;35698;50.232;30.540;2023-04-21T03:08:47;99956.97;;;13.03;67.45
49801;BME280;35698;50.232;30.540;2023-04-21T03:10:09;99955.05;;;13.05;67.30
49801;BME280;35698;50.232;30.540;2023-04-21T03:11:20;99948.78;;;13.19;67.37
49801;BME280;35698;50.232;30.540;2023-04-21T03:12:23;99956.75;;;13.06;67.35
49801;BME280;35698;50.232;30.540;2023-04-21T03:13:45;99952.29;;;13.06;67.29
49801;BME280;35698;50.232;30.540;2023-04-21T03:15:06;99955.67;;;13.21;67.39
49801;BME280;35698;50.232;30.540;2023-04-21T03:16:10;99955.79;;;13.07;67.31
49801;BME280;35698;50.232;30.540;2023-04-21T03:17:31;99952.18;;;13.08;67.43
49801;BME280;35698;50.232;30.540;2023-04-21T03:18:53;99951.11;;;13.10;67.15
49801;BME280;35698;50.232;30.540;2023-04-21T03:20:05;99952.91;;;13.23;67.32
49801;BME280;35698;50.232;30.540;2023-04-21T03:21:09;99950.89;;;13.13;67.29
49801;BME280;35698;50.232;30.540;2023-04-21T03:22:30;99963.97;;;13.17;67.15
49801;BME280;35698;50.232;30.540;2023-04-21T03:23:52;99962.67;;;13.22;66.98
49801;BME280;35698;50.232;30.540;2023-04-21T03:24:55;99962.34;;;13.27;66.88
49801;BME280;35698;50.232;30.540;2023-04-21T03:26:07;99955.92;;;13.42;66.80
49801;BME280;35698;50.232;30.540;2023-04-21T03:27:10;99952.36;;;13.30;66.53
49801;BME280;35698;50.232;30.540;2023-04-21T03:28:21;99954.95;;;13.43;66.84
49801;BME280;35698;50.232;30.540;2023-04-21T03:29:24;99964.03;;;13.28;66.87
49801;BME280;35698;50.232;30.540;2023-04-21T03:30:28;99959.98;;;13.35;66.63
49801;BME280;35698;50.232;30.540;2023-04-21T03:31:49;99961.67;;;13.36;65.83
49801;BME280;35698;50.232;30.540;2023-04-21T03:32:52;99961.90;;;13.33;66.00
49801;BME280;35698;50.232;30.540;2023-04-21T03:34:14;99961.90;;;13.33;65.99
49801;BME280;35698;50.232;30.540;2023-04-21T03:35:31;99957.39;;;13.46;66.20
49801;BME280;35698;50.232;30.540;2023-04-21T03:36:34;99963.98;;;13.40;66.38
49801;BME280;35698;50.232;30.540;2023-04-21T03:37:46;99969.98;;;13.55;65.95
49801;BME280;35698;50.232;30.540;2023-04-21T03:38:49;99962.47;;;13.49;65.61
49801;BME280;35698;50.232;30.540;2023-04-21T03:40:00;99960.88;;;13.70;65.74
49801;BME280;35698;50.232;30.540;2023-04-21T03:41:04;99958.13;;;13.48;65.06
49801;BME280;35698;50.232;30.540;2023-04-21T03:42:07;99960.89;;;13.47;65.24
49801;BME280;35698;50.232;30.540;2023-04-21T03:43:29;99961.56;;;13.37;65.03
49801;BME280;35698;50.232;30.540;2023-04-21T03:44:32;99960.04;;;13.46;64.99
49801;BME280;35698;50.232;30.540;2023-04-21T03:45:53;99960.21;;;13.56;64.84
49801;BME280;35698;50.232;30.540;2023-04-21T03:46:57;99961.06;;;13.56;64.76
49801;BME280;35698;50.232;30.540;2023-04-21T03:48:00;99950.44;;;13.56;64.54
49801;BME280;35698;50.232;30.540;2023-04-21T03:49:11;99952.92;;;13.70;64.52
49801;BME280;35698;50.232;30.540;2023-04-21T03:50:14;99957.72;;;13.65;64.38
49801;BME280;35698;50.232;30.540;2023-04-21T03:51:25;99954.42;;;13.86;64.31
49801;BME280;35698;50.232;30.540;2023-04-21T03:52:29;99951.84;;;13.73;63.46
49801;BME280;35698;50.232;30.540;2023-04-21T03:53:32;99946.88;;;13.68;63.47
49801;BME280;35698;50.232;30.540;2023-04-21T03:54:43;99953.09;;;13.91;63.65
49801;BME280;35698;50.232;30.540;2023-04-21T03:55:51;99946.46;;;13.86;63.71
49801;BME280;35698;50.232;30.540;2023-04-21T03:57:02;99947.46;;;14.07;63.30
49801;BME280;35698;50.232;30.540;2023-04-21T03:58:05;99947.92;;;14.01;63.19
49801;BME280;35698;50.232;30.540;2023-04-21T03:59:08;99938.77;;;14.05;62.65
49801;BME280;35698;50.232;30.540;2023-04-21T04:00:26;99942.67;;;14.23;62.37
49801;BME280;35698;50.232;30.540;2023-04-21T04:01:29;99938.67;;;14.18;62.17
49801;BME280;35698;50.232;30.540;2023-04-21T04:02:41;99948.97;;;14.33;61.94
49801;BME280;35698;50.232;30.540;2023-04-21T04:03:44;99939.63;;;14.17;61.39
49801;BME280;35698;50.232;30.540;2023-04-21T04:04:56;99939.66;;;14.28;61.93
49801;BME280;35698;50.232;30.540;2023-04-21T04:05:59;99936.22;;;14.03;61.26
49801;BME280;35698;50.232;30.540;2023-04-21T04:07:11;99936.37;;;14.13;61.67
49801;BME280;35698;50.232;30.540;2023-04-21T04:08:14;99937.30;;;14.01;61.58
49801;BME280;35698;50.232;30.540;2023-04-21T04:09:26;99931.05;;;14.13;61.58
49801;BME280;35698;50.232;30.540;2023-04-21T04:10:29;99933.45;;;14.05;61.67
49801;BME280;35698;50.232;30.540;2023-04-21T04:11:41;99937.45;;;14.10;61.41
49801;BME280;35698;50.232;30.540;2023-04-21T04:12:44;99941.84;;;13.88;61.35
49801;BME280;35698;50.232;30.540;2023-04-21T04:13:47;99935.95;;;13.95;61.90
49801;BME280;35698;50.232;30.540;2023-04-21T04:15:05;99934.44;;;14.15;61.49
49801;BME280;35698;50.232;30.540;2023-04-21T04:16:09;99940.22;;;14.09;61.54
49801;BME280;35698;50.232;30.540;2023-04-21T04:17:12;99938.67;;;14.18;61.55
49801;BME280;35698;50.232;30.540;2023-04-21T04:18:15;99936.37;;;14.13;60.95
49801;BME280;35698;50.232;30.540;2023-04-21T04:19:18;99943.52;;;14.24;61.31
49801;BME280;35698;50.232;30.540;2023-04-21T04:20:29;99938.69;;;14.29;60.86
49801;BME280;35698;50.232;30.540;2023-04-21T04:21:33;99943.61;;;14.11;61.95
49801;BME280;35698;50.232;30.540;2023-04-21T04:22:36;99939.28;;;14.21;61.43
49801;BME280;35698;50.232;30.540;2023-04-21T04:23:40;99937.84;;;14.28;61.17
49801;BME280;35698;50.232;30.540;2023-04-21T04:24:51;99934.77;;;14.46;61.24
49801;BME280;35698;50.232;30.540;2023-04-21T04:25:54;99937.55;;;14.55;60.57
49801;BME280;35698;50.232;30.540;2023-04-21T04:27:05;99943.22;;;14.51;60.61
49801;BME280;35698;50.232;30.540;2023-04-21T04:28:08;99946.92;;;14.37;60.71
49801;BME280;35698;50.232;30.540;2023-04-21T04:29:32;99938.50;;;14.43;61.00
49801;BME280;35698;50.232;30.540;2023-04-21T04:30:43;99936.03;;;14.29;61.01
49801;BME280;35698;50.232;30.540;2023-04-21T04:31:48;99943.89;;;14.30;60.97
49801;BME280;35698;50.232;30.540;2023-04-21T04:33:10;99942.03;;;14.08;60.92
49801;BME280;35698;50.232;30.540;2023-04-21T04:34:14;99941.21;;;14.19;61.64
49801;BME280;35698;50.232;30.540;2023-04-21T04:35:25;99942.00;;;14.43;61.27
49801;BME280;35698;50.232;30.540;2023-04-21T04:36:28;99946.55;;;14.30;61.23
49801;BME280;35698;50.232;30.540;2023-04-21T04:37:50;99943.82;;;14.43;61.24
49801;BME280;35698;50.232;30.540;2023-04-21T04:38:53;99935.73;;;14.56;61.16
49801;BME280;35698;50.232;30.540;2023-04-21T04:39:57;99935.98;;;14.64;61.33
49801;BME280;35698;50.232;30.540;2023-04-21T04:41:07;99935.70;;;14.89;61.35
49801;BME280;35698;50.232;30.540;2023-04-21T04:42:11;99937.39;;;14.79;60.47
49801;BME280;35698;50.232;30.540;2023-04-21T04:43:32;99935.81;;;14.88;60.54
49801;BME280;35698;50.232;30.540;2023-04-21T04:44:44;99936.16;;;15.05;60.21
49801;BME280;35698;50.232;30.540;2023-04-21T04:45:47;99934.12;;;14.98;59.89
49801;BME280;35698;50.232;30.540;2023-04-21T04:47:08;99941.60;;;15.04;60.20
49801;BME280;35698;50.232;30.540;2023-04-21T04:48:19;99952.09;;;15.28;60.20
49801;BME280;35698;50.232;30.540;2023-04-21T04:49:23;99950.77;;;15.22;59.28
49801;BME280;35698;50.232;30.540;2023-04-21T04:50:44;99948.48;;;15.18;58.62
49801;BME280;35698;50.232;30.540;2023-04-21T04:51:51;99942.44;;;15.16;59.15
49801;BME280;35698;50.232;30.540;2023-04-21T04:53:14;99943.35;;;15.37;58.99
49801;BME280;35698;50.232;30.540;2023-04-21T04:54:17;99950.61;;;15.35;59.07
49801;BME280;35698;50.232;30.540;2023-04-21T04:55:39;99950.48;;;15.36;58.81
49801;BME280;35698;50.232;30.540;2023-04-21T04:56:58;99956.13;;;15.54;58.44
49801;BME280;35698;50.232;30.540;2023-04-21T04:58:01;99957.59;;;15.47;58.56
49801;BME280;35698;50.232;30.540;2023-04-21T04:59:05;99945.98;;;15.48;58.13
49801;BME280;35698;50.232;30.540;2023-04-21T05:00:26;99947.45;;;15.41;58.27
49801;BME280;35698;50.232;30.540;2023-04-21T05:01:48;99944.32;;;15.36;58.15
49801;BME280;35698;50.232;30.540;2023-04-21T05:02:59;99949.86;;;15.44;58.46
49801;BME280;35698;50.232;30.540;2023-04-21T05:04:03;99953.40;;;15.33;58.27
49801;BME280;35698;50.232;30.540;2023-04-21T05:05:14;99952.49;;;15.55;58.45
49801;BME280;35698;50.232;30.540;2023-04-21T05:06:17;99957.34;;;15.50;58.49
49801;BME280;35698;50.232;30.540;2023-04-21T05:07:33;99947.87;;;15.14;58.27
49801;BME280;35698;50.232;30.540;2023-04-21T05:08:36;99956.93;;;15.23;58.35
49801;BME280;35698;50.232;30.540;2023-04-21T05:09:47;99958.82;;;15.43;58.40
49801;BME280;35698;50.232;30.540;2023-04-21T05:10:50;99962.48;;;15.31;58.40
49801;BME280;35698;50.232;30.540;2023-04-21T05:12:02;99956.13;;;15.54;58.49
49801;BME280;35698;50.232;30.540;2023-04-21T05:13:05;99970.44;;;15.42;57.74
49801;BME280;35698;50.232;30.540;2023-04-21T05:14:27;99960.89;;;15.39;57.82
49801;BME280;35698;50.232;30.540;2023-04-21T05:15:48;99956.28;;;15.41;57.97
49801;BME280;35698;50.232;30.540;2023-04-21T05:17:10;99956.91;;;15.34;57.80
49801;BME280;35698;50.232;30.540;2023-04-21T05:18:27;99966.68;;;15.45;57.98
49801;BME280;35698;50.232;30.540;2023-04-21T05:19:35;99966.58;;;15.35;58.13
49801;BME280;35698;50.232;30.540;2023-04-21T05:20:57;99961.39;;;15.33;58.49
49801;BME280;35698;50.232;30.540;2023-04-21T05:22:18;99966.34;;;15.38;58.34
49801;BME280;35698;50.232;30.540;2023-04-21T05:23:29;99963.77;;;15.48;57.88
49801;BME280;35698;50.232;30.540;2023-04-21T05:24:33;99975.16;;;15.38;57.81
49801;BME280;35698;50.232;30.540;2023-04-21T05:25:54;99969.72;;;15.40;57.88
49801;BME280;35698;50.232;30.540;2023-04-21T05:27:05;99969.81;;;15.50;58.20
49801;BME280;35698;50.232;30.540;2023-04-21T05:28:08;99963.17;;;15.44;58.22
49801;BME280;35698;50.232;30.540;2023-04-21T05:29:30;99963.42;;;15.41;57.22
49801;BME280;35698;50.232;30.540;2023-04-21T05:30:41;99963.27;;;15.54;57.10
49801;BME280;35698;50.232;30.540;2023-04-21T05:31:44;99967.15;;;15.50;57.38
49801;BME280;35698;50.232;30.540;2023-04-21T05:33:06;99964.95;;;15.55;57.21
49801;BME280;35698;50.232;30.540;2023-04-21T05:34:09;99965.58;;;15.58;57.07
49801;BME280;35698;50.232;30.540;2023-04-21T05:35:50;99958.50;;;15.68;56.48
49801;BME280;35698;50.232;30.540;2023-04-21T05:36:53;99956.68;;;15.69;55.99
49801;BME280;35698;50.232;30.540;2023-04-21T05:38:15;99964.55;;;15.70;56.01
49801;BME280;35698;50.232;30.540;2023-04-21T05:39:26;99960.56;;;15.65;56.10
49801;BME280;35698;50.232;30.540;2023-04-21T05:40:30;99958.28;;;15.60;56.25
49801;BME280;35698;50.232;30.540;2023-04-21T05:41:51;99964.83;;;15.56;56.07
49801;BME280;35698;50.232;30.540;2023-04-21T05:43:02;99972.41;;;15.72;56.33
49801;BME280;35698;50.232;30.540;2023-04-21T05:44:06;99968.25;;;15.58;56.42
49801;BME280;35698;50.232;30.540;2023-04-21T05:45:17;99961.16;;;15.68;56.51
49801;BME280;35698;50.232;30.540;2023-04-21T05:46:21;99963.23;;;15.65;56.17
49801;BME280;35698;50.232;30.540;2023-04-21T05:47:32;99965.34;;;15.82;56.46
49801;BME280;35698;50.232;30.540;2023-04-21T05:48:43;99966.19;;;15.83;55.56
49801;BME280;35698;50.232;30.540;2023-04-21T05:50:05;99969.83;;;15.82;55.67
49801;BME280;35698;50.232;30.540;2023-04-21T05:51:17;99968.62;;;16.06;56.24
49801;BME280;35698;50.232;30.540;2023-04-21T05:52:38;99965.11;;;16.06;55.85
49801;BME280;35698;50.232;30.540;2023-04-21T05:53:49;99967.45;;;16.20;55.25
49801;BME280;35698;50.232;30.540;2023-04-21T05:55:10;99960.05;;;16.24;55.44
49801;BME280;35698;50.232;30.540;2023-04-21T05:56:22;99959.97;;;16.35;55.00
49801;BME280;35698;50.232;30.540;2023-04-21T05:57:43;99963.30;;;16.27;54.86
49801;BME280;35698;50.232;30.540;2023-04-21T05:58:56;99963.67;;;16.44;54.56
49801;BME280;35698;50.232;30.540;2023-04-21T06:00:18;99961.41;;;16.39;54.49
49801;BME280;35698;50.232;30.540;2023-04-21T06:01:29;99967.66;;;16.59;54.50
49801;BME280;35698;50.232;30.540;2023-04-21T06:02:50;99972.09;;;16.49;53.89
49801;BME280;35698;50.232;30.540;2023-04-21T06:04:01;99962.91;;;16.62;53.69
49801;BME280;35698;50.232;30.540;2023-04-21T06:05:22;99959.66;;;16.59;53.83
49801;BME280;35698;50.232;30.540;2023-04-21T06:06:39;99968.58;;;16.69;53.28
49801;BME280;35698;50.232;30.540;2023-04-21T06:08:01;99967.34;;;16.52;53.12
49801;BME280;35698;50.232;30.540;2023-04-21T06:09:12;99971.30;;;16.58;52.90
49801;BME280;35698;50.232;30.540;2023-04-21T06:10:33;99964.66;;;16.43;53.13